Time;durP1;ratioP1;P1;durP2;ratioP2;P2;SDS_P1;SDS_P2;PMS_P1;PMS_P2;Temp;Humidity;BMP_temperature;BMP_pressure;BME280_temperature;BME280_humidity;BME280_pressure;Samples;Min_cycle;Max_cycle;Signal;HPM_P1;HPM_P2
2022/02/03 00:03:53;;;;;;;4.07;1.70;;;17.30;61.50;;;;;;10560329;28;20227;-67
2022/02/03 00:09:55;;;;;;;3.70;1.73;;;17.30;61.50;;;;;;10568199;28;20253;-67
2022/02/03 00:27:00;;;;;;;3.50;1.80;;;17.30;61.40;;;;;;10496278;28;20215;-67
2022/02/03 00:38:29;;;;;;;2.67;1.77;;;17.30;61.50;;;;;;10506893;28;20221;-67
2022/02/03 00:49:39;;;;;;;1.83;1.43;;;17.30;61.50;;;;;;10517660;28;20233;-67
2022/02/03 00:55:04;;;;;;;3.47;1.63;;;17.20;61.50;;;;;;10547574;28;20404;-67
2022/02/03 01:00:29;;;;;;;3.50;1.80;;;17.30;61.60;;;;;;10554099;28;20341;-67
2022/02/03 01:05:51;;;;;;;4.03;1.70;;;17.30;61.40;;;;;;10526203;28;20194;-67
2022/02/03 01:11:20;;;;;;;2.97;1.43;;;17.30;61.50;;;;;;10524829;28;20208;-67
2022/02/03 01:17:02;;;;;;;4.27;1.73;;;17.30;61.40;;;;;;10524681;28;20384;-67
2022/02/03 01:34:08;;;;;;;3.10;1.47;;;17.20;61.50;;;;;;10566770;28;20183;-67
2022/02/03 01:45:20;;;;;;;4.43;1.70;;;17.20;61.60;;;;;;10533152;28;20214;-67
2022/02/03 01:56:29;;;;;;;3.27;1.53;;;17.30;61.50;;;;;;10551384;28;20199;-67
2022/02/03 02:02:03;;;;;;;3.27;1.20;;;17.30;61.60;;;;;;10567514;28;20214;-67
2022/02/03 02:07:35;;;;;;;3.27;1.67;;;17.30;61.40;;;;;;10574166;28;20211;-67
2022/02/03 02:13:26;;;;;;;3.30;1.53;;;17.30;61.40;;;;;;10573924;28;20191;-67
2022/02/03 02:47:57;;;;;;;1.60;1.03;;;17.20;61.40;;;;;;10570064;28;20222;-67
2022/02/03 02:53:37;;;;;;;2.47;1.50;;;17.20;61.40;;;;;;10572208;28;20191;-67
2022/02/03 02:59:24;;;;;;;3.57;1.57;;;17.20;61.40;;;;;;10570194;28;20230;-67
2022/02/03 03:33:47;;;;;;;1.83;1.10;;;17.20;61.60;;;;;;10567938;28;20176;-67
2022/02/03 03:39:12;;;;;;;2.20;1.27;;;17.20;61.60;;;;;;10568868;28;20226;-67
2022/02/03 03:44:38;;;;;;;3.67;1.50;;;17.20;61.60;;;;;;10568865;28;20279;-68
2022/02/03 03:50:07;;;;;;;2.30;1.40;;;17.20;61.60;;;;;;10567135;28;20219;-68
2022/02/03 03:55:41;;;;;;;4.50;1.40;;;17.20;61.60;;;;;;10568622;28;20191;-67
2022/02/03 04:42:36;;;;;;;2.80;1.30;;;17.20;61.60;;;;;;10525405;28;20554;-67
2022/02/03 05:00:35;;;;;;;3.07;1.10;;;17.30;61.70;;;;;;10566818;28;20696;-67
2022/02/03 05:06:11;;;;;;;2.00;1.23;;;17.30;61.70;;;;;;10568196;28;20202;-67
2022/02/03 05:12:10;;;;;;;1.67;1.10;;;17.30;61.80;;;;;;10568049;28;20191;-68
2022/02/03 05:42:00;;;;;;;1.63;0.87;;;17.30;61.70;;;;;;10576112;28;20194;-67
2022/02/03 05:47:49;;;;;;;1.40;0.90;;;17.30;61.70;;;;;;10471331;28;20290;-67
2022/02/03 06:04:50;;;;;;;1.93;0.90;;;17.30;61.90;;;;;;10558513;28;20215;-67
2022/02/03 06:16:05;;;;;;;1.37;0.87;;;17.30;62.10;;;;;;10543337;28;20475;-68
2022/02/03 06:21:30;;;;;;;2.13;1.20;;;17.30;62.10;;;;;;10571932;28;20222;-68
2022/02/03 06:32:37;;;;;;;1.43;0.87;;;17.30;62.00;;;;;;10571612;28;20196;-67
2022/02/03 06:37:59;;;;;;;2.27;1.27;;;17.30;62.00;;;;;;10572241;28;20541;-67
2022/02/03 06:43:21;;;;;;;1.20;0.80;;;17.30;62.00;;;;;;10570871;28;20635;-67
2022/02/03 06:48:52;;;;;;;1.43;0.97;;;17.30;61.90;;;;;;10568413;28;20229;-68
2022/02/03 06:54:21;;;;;;;1.10;1.00;;;17.30;61.90;;;;;;10570402;28;20644;-67
2022/02/03 06:59:50;;;;;;;1.92;1.25;;;17.30;62.50;;;;;;10549925;28;20479;-68
2022/02/03 07:05:14;;;;;;;1.10;0.77;;;18.30;58.80;;;;;;10551736;28;20215;-69
2022/02/03 07:10:36;;;;;;;2.20;1.33;;;17.70;60.70;;;;;;10549909;28;20309;-69
2022/02/03 07:15:58;;;;;;;1.93;1.13;;;17.40;61.40;;;;;;10554888;28;20293;-68
2022/02/03 07:21:22;;;;;;;2.23;1.03;;;17.40;61.80;;;;;;10567023;28;20219;-69
2022/02/03 07:26:44;;;;;;;1.83;1.23;;;17.30;62.00;;;;;;10566682;28;20211;-68
2022/02/03 07:32:08;;;;;;;2.40;1.17;;;17.30;62.10;;;;;;10566779;28;20199;-68
2022/02/03 07:37:31;;;;;;;2.10;1.30;;;17.30;62.30;;;;;;10567954;28;20226;-68
2022/02/03 07:42:55;;;;;;;1.37;1.00;;;17.30;62.40;;;;;;10563736;28;20225;-68
2022/02/03 07:48:20;;;;;;;2.10;1.40;;;17.30;62.40;;;;;;10562394;27;20715;-68
2022/02/03 07:53:43;;;;;;;3.27;1.40;;;17.30;62.50;;;;;;10561988;28;20256;-68
2022/02/03 07:59:06;;;;;;;2.93;1.33;;;17.30;62.50;;;;;;10567080;28;20223;-68
2022/02/03 08:04:31;;;;;;;1.47;1.20;;;17.30;62.60;;;;;;10567082;28;20223;-69
2022/02/03 08:09:59;;;;;;;1.97;1.10;;;17.30;62.60;;;;;;10568316;28;20222;-68
2022/02/03 08:15:22;;;;;;;2.33;1.37;;;17.30;62.60;;;;;;10526296;28;20289;-68
2022/02/03 08:20:51;;;;;;;1.60;1.23;;;17.30;62.70;;;;;;10523497;28;20216;-68
2022/02/03 08:26:27;;;;;;;2.73;1.50;;;17.30;62.70;;;;;;10526340;28;20557;-68
2022/02/03 08:31:54;;;;;;;2.20;1.30;;;17.20;62.70;;;;;;10527248;28;20562;-68
2022/02/03 08:37:17;;;;;;;2.57;1.40;;;17.20;62.80;;;;;;10566914;28;20348;-68
2022/02/03 08:42:40;;;;;;;3.03;1.47;;;17.30;62.80;;;;;;10567739;28;20226;-68
2022/02/03 08:48:03;;;;;;;1.10;1.00;;;17.30;62.80;;;;;;10567539;28;20219;-68
2022/02/03 08:53:29;;;;;;;3.43;1.63;;;17.30;62.90;;;;;;10567967;28;20191;-68
2022/02/03 09:39:00;;;;;;;1.93;1.30;;;17.30;63.10;;;;;;10564831;28;20438;-68
2022/02/03 09:51:00;;;;;;;1.73;1.03;;;17.30;63.20;;;;;;10569147;28;20211;-69
2022/02/03 10:02:07;;;;;;;1.37;1.00;;;17.30;63.30;;;;;;10571903;28;20211;-69
2022/02/03 10:07:34;;;;;;;1.43;1.10;;;17.40;63.40;;;;;;10577374;28;20299;-69
2022/02/03 10:12:56;;;;;;;2.87;1.40;;;17.40;63.40;;;;;;10579589;28;20191;-69
2022/02/03 10:18:25;;;;;;;3.53;1.60;;;17.40;63.20;;;;;;10576042;28;20223;-69
2022/02/03 10:23:59;;;;;;;2.00;1.60;;;17.40;63.20;;;;;;10576342;28;20210;-69
2022/02/03 10:29:25;;;;;;;1.90;1.60;;;17.40;63.20;;;;;;10575628;28;20215;-69
2022/02/03 10:34:48;;;;;;;1.37;1.13;;;17.30;63.20;;;;;;10573086;28;20553;-69
2022/02/03 10:40:38;;;;;;;2.63;1.70;;;17.40;63.50;;;;;;10567327;28;20511;-69
2022/02/03 10:46:36;;;;;;;2.07;1.60;;;17.40;63.60;;;;;;10578139;28;20222;-69
2022/02/03 10:52:35;;;;;;;4.13;1.70;;;17.40;63.50;;;;;;10577076;28;20232;-69
2022/02/03 11:04:26;;;;;;;2.20;1.47;;;17.50;63.50;;;;;;10570496;28;20210;-69
2022/02/03 11:09:56;;;;;;;2.17;1.50;;;17.50;63.50;;;;;;10577447;28;20336;-69
2022/02/03 11:15:23;;;;;;;3.50;1.37;;;17.50;63.50;;;;;;10575634;28;20307;-69
2022/02/03 11:20:45;;;;;;;1.57;1.00;;;17.50;63.40;;;;;;10576448;28;20294;-69
2022/02/03 11:26:16;;;;;;;1.77;1.33;;;17.50;63.40;;;;;;10571786;22;22470;-72
2022/02/03 11:37:55;;;;;;;2.37;1.30;;;17.50;63.30;;;;;;10426013;28;20209;-71
2022/02/03 12:23:05;;;;;;;1.30;1.00;;;17.60;63.30;;;;;;10483700;28;20188;-66
2022/02/03 12:28:35;;;;;;;1.70;1.10;;;17.50;63.20;;;;;;10560612;28;20219;-65
2022/02/03 12:40:00;;;;;;;0.90;0.90;;;17.50;63.20;;;;;;10601504;28;20237;-65
2022/02/03 12:45:27;;;;;;;3.63;1.00;;;17.50;63.30;;;;;;10568943;28;20222;-65
2022/02/03 12:50:52;;;;;;;2.13;1.17;;;17.40;63.40;;;;;;10560966;28;20328;-66
2022/02/03 12:56:15;;;;;;;1.33;1.10;;;17.40;63.60;;;;;;10555699;28;20221;-65
2022/02/03 13:01:40;;;;;;;1.03;0.93;;;17.40;63.60;;;;;;10521938;28;20282;-66
2022/02/03 13:07:08;;;;;;;1.10;1.00;;;17.40;63.70;;;;;;10533335;28;20677;-66
2022/02/03 13:12:37;;;;;;;1.57;1.10;;;17.40;63.60;;;;;;10534867;28;20211;-66
2022/02/03 13:18:03;;;;;;;1.90;1.03;;;17.40;63.60;;;;;;10535521;28;20587;-66
2022/02/03 13:23:28;;;;;;;1.30;0.80;;;17.40;63.70;;;;;;10539588;28;20203;-66
2022/02/03 13:29:02;;;;;;;1.40;1.00;;;17.40;63.60;;;;;;10530365;28;20241;-66
2022/02/03 13:34:33;;;;;;;1.70;1.20;;;17.40;63.60;;;;;;10573397;28;20195;-66
2022/02/03 13:40:04;;;;;;;0.90;0.73;;;17.40;63.60;;;;;;10572319;28;20219;-66
2022/02/03 13:45:28;;;;;;;1.17;1.07;;;17.40;63.60;;;;;;10525094;28;20569;-66
2022/02/03 13:50:53;;;;;;;1.00;0.90;;;17.40;63.70;;;;;;10528134;28;20572;-66
2022/02/03 14:31:04;;;;;;;1.37;0.80;;;17.50;64.10;;;;;;10399815;28;20206;-68
2022/02/03 14:36:30;;;;;;;0.80;0.80;;;17.50;64.00;;;;;;10558887;28;20264;-68
2022/02/03 14:41:53;;;;;;;0.67;0.67;;;17.50;64.00;;;;;;10544888;28;20199;-68
2022/02/03 14:47:15;;;;;;;1.03;0.87;;;17.50;64.10;;;;;;10574505;28;20219;-68
2022/02/03 14:52:55;;;;;;;1.03;0.70;;;17.40;64.20;;;;;;10575949;28;20648;-68
2022/02/03 14:58:22;;;;;;;1.23;0.80;;;17.40;64.20;;;;;;10576192;28;20216;-68
2022/02/03 15:03:45;;;;;;;0.60;0.53;;;17.40;64.30;;;;;;10567022;28;20194;-68
2022/02/03 15:09:20;;;;;;;2.20;0.90;;;17.40;64.40;;;;;;10575231;28;20718;-68
2022/02/03 15:14:43;;;;;;;1.13;0.87;;;17.50;64.30;;;;;;10575092;28;20275;-68
2022/02/03 15:20:06;;;;;;;1.43;0.90;;;17.50;64.30;;;;;;10574479;28;20588;-67
2022/02/03 15:25:30;;;;;;;0.93;0.80;;;17.50;64.30;;;;;;10572693;28;20218;-67
2022/02/03 15:30:53;;;;;;;2.97;0.67;;;17.60;64.20;;;;;;10574600;28;20230;-68
2022/02/03 15:36:15;;;;;;;1.00;0.87;;;17.60;64.20;;;;;;10575210;28;20545;-67
2022/02/03 15:41:40;;;;;;;2.40;1.00;;;17.60;64.20;;;;;;10572229;28;20203;-67
2022/02/03 15:47:08;;;;;;;1.53;0.97;;;17.50;64.20;;;;;;10552054;28;20219;-66
2022/02/03 16:04:19;;;;;;;2.17;0.80;;;17.40;64.50;;;;;;10574454;28;20216;-67
2022/02/03 16:21:17;;;;;;;1.30;1.20;;;17.50;64.80;;;;;;10573535;28;20694;-67
2022/02/03 16:55:11;;;;;;;1.63;1.10;;;17.60;64.60;;;;;;10572204;28;20206;-68
2022/02/03 17:00:35;;;;;;;0.90;0.73;;;17.60;64.70;;;;;;10568536;28;20345;-67
2022/02/03 17:05:59;;;;;;;1.77;0.93;;;17.60;64.70;;;;;;10575551;28;20559;-68
2022/02/03 17:11:21;;;;;;;2.10;0.90;;;17.60;64.70;;;;;;10580527;28;20226;-68
2022/02/03 17:16:43;;;;;;;1.67;0.80;;;17.60;64.70;;;;;;10580114;28;20191;-67
2022/02/03 17:22:08;;;;;;;1.03;0.80;;;17.60;65.30;;;;;;10578338;28;20191;-68
2022/02/03 17:27:36;;;;;;;0.97;0.80;;;17.70;64.80;;;;;;10585743;22;20232;-69
2022/02/03 18:19:17;;;;;;;1.23;0.90;;;17.70;64.60;;;;;;10423620;28;20212;-69
2022/02/03 18:35:58;;;;;;;1.73;1.00;;;17.70;64.50;;;;;;10426761;28;20296;-69
2022/02/03 18:53:03;;;;;;;1.00;0.90;;;17.70;64.50;;;;;;10394312;28;20205;-69
2022/02/03 18:58:36;;;;;;;1.30;1.10;;;17.70;64.40;;;;;;10411316;28;20221;-70
2022/02/03 19:15:56;;;;;;;1.00;0.87;;;17.70;64.50;;;;;;10433047;28;20200;-69
2022/02/03 19:22:21;;;;;;;1.97;1.07;;;17.70;64.50;;;;;;10451469;28;20684;-69
2022/02/03 20:07:19;;;;;;;0.87;0.83;;;17.60;64.60;;;;;;10413331;28;20220;-68
2022/02/03 20:12:42;;;;;;;1.47;0.80;;;17.70;64.60;;;;;;10428046;28;20676;-68
2022/02/03 20:18:05;;;;;;;1.87;1.10;;;17.70;64.50;;;;;;10432002;28;20225;-68
2022/02/03 20:23:27;;;;;;;1.67;1.07;;;17.70;64.50;;;;;;10414875;28;20217;-68
2022/02/03 20:28:51;;;;;;;1.83;0.83;;;17.70;64.60;;;;;;10427384;28;20236;-68
2022/02/03 20:34:13;;;;;;;1.30;0.87;;;17.70;64.50;;;;;;10427048;28;20205;-68
2022/02/03 20:39:35;;;;;;;1.17;0.90;;;17.70;64.50;;;;;;10428274;28;20705;-68
2022/02/03 20:45:00;;;;;;;1.33;1.00;;;17.70;64.50;;;;;;10428140;28;20236;-68
2022/02/03 20:50:22;;;;;;;1.10;1.00;;;17.70;64.40;;;;;;10432785;28;20574;-68
2022/02/03 20:55:45;;;;;;;0.80;0.80;;;17.70;64.50;;;;;;10423780;28;20221;-68
2022/02/03 21:01:15;;;;;;;1.57;1.10;;;17.70;64.40;;;;;;10433792;28;20217;-68
2022/02/03 21:06:37;;;;;;;1.47;1.00;;;17.70;64.40;;;;;;10443133;28;20735;-69
2022/02/03 21:11:59;;;;;;;1.63;1.00;;;17.70;64.40;;;;;;10433206;28;20301;-68
2022/02/03 21:17:24;;;;;;;0.83;0.83;;;17.70;64.40;;;;;;10415280;28;20214;-68
2022/02/03 21:22:46;;;;;;;1.10;1.00;;;17.70;64.40;;;;;;10415546;28;20732;-67
2022/02/03 21:28:14;;;;;;;1.37;1.07;;;17.70;64.40;;;;;;10446200;28;20626;-68
2022/02/03 21:33:46;;;;;;;1.17;0.90;;;17.70;64.40;;;;;;10456095;28;20276;-67
2022/02/03 21:39:08;;;;;;;1.20;1.10;;;17.60;64.40;;;;;;10451745;28;20232;-68
2022/02/03 21:44:30;;;;;;;1.70;0.93;;;17.60;64.40;;;;;;10426574;28;20202;-67
2022/02/03 21:49:54;;;;;;;1.10;1.00;;;17.60;64.40;;;;;;10443064;28;20222;-68
2022/02/03 21:55:17;;;;;;;1.20;1.10;;;17.60;64.40;;;;;;10415392;28;20332;-68
2022/02/03 22:00:39;;;;;;;1.80;1.27;;;17.60;64.50;;;;;;10415612;28;20193;-68
2022/02/03 22:06:03;;;;;;;0.80;0.80;;;17.60;64.40;;;;;;10415045;28;20248;-68
2022/02/03 22:11:26;;;;;;;1.20;1.00;;;17.60;64.40;;;;;;10446220;28;20213;-68
2022/02/03 22:16:49;;;;;;;1.37;0.90;;;17.60;64.40;;;;;;10418034;28;20220;-68
2022/02/03 22:22:23;;;;;;;0.80;0.80;;;17.60;64.40;;;;;;10409777;28;20287;-67
2022/02/03 22:28:01;;;;;;;0.77;0.77;;;17.60;65.00;;;;;;10407690;28;20252;-68
2022/02/03 22:39:14;;;;;;;1.30;1.10;;;17.60;64.40;;;;;;10411440;28;20210;-67
2022/02/03 22:44:54;;;;;;;1.57;0.90;;;17.60;64.40;;;;;;10412898;28;20192;-67
2022/02/03 22:50:16;;;;;;;1.10;0.97;;;17.60;64.40;;;;;;10412242;28;20698;-68
2022/02/03 22:55:39;;;;;;;1.13;0.90;;;17.60;64.40;;;;;;10412686;28;20669;-68
2022/02/03 23:01:04;;;;;;;1.23;1.03;;;17.60;64.40;;;;;;10429061;28;20193;-68
2022/02/03 23:06:27;;;;;;;0.90;0.90;;;17.60;64.40;;;;;;10418595;28;20233;-67
2022/02/03 23:12:05;;;;;;;1.37;0.90;;;17.60;64.40;;;;;;10410466;28;20205;-68
2022/02/03 23:17:41;;;;;;;1.00;1.00;;;17.60;64.40;;;;;;10411612;28;20595;-68
2022/02/03 23:23:03;;;;;;;0.83;0.83;;;17.50;64.90;;;;;;10412111;28;20190;-68
2022/02/03 23:28:30;;;;;;;1.63;0.90;;;17.60;64.40;;;;;;10443363;28;20229;-68
2022/02/03 23:33:52;;;;;;;1.20;0.93;;;17.60;64.40;;;;;;10416108;28;20201;-68
2022/02/03 23:39:18;;;;;;;1.00;0.90;;;17.60;64.40;;;;;;10432249;28;20574;-68
2022/02/03 23:44:50;;;;;;;1.20;0.80;;;17.60;64.40;;;;;;10437833;28;20243;-68
